Time;durP1;ratioP1;P1;durP2;ratioP2;P2;SDS_P1;SDS_P2;PMS_P1;PMS_P2;Temp;Humidity;BMP_temperature;BMP_pressure;BME280_temperature;BME280_humidity;BME280_pressure;Samples;Min_cycle;Max_cycle;Signal;HPM_P1;HPM_P2
2022/04/27 00:02:10;;;;;;;14.90;9.57;;;6.10;99.90;;;;;;5025922;28;20229;-59
2022/04/27 00:04:36;;;;;;;20.80;10.37;;;6.10;99.90;;;;;;5025977;28;20184;-59
2022/04/27 00:07:04;;;;;;;16.53;8.90;;;6.10;99.90;;;;;;5025835;28;20442;-59
2022/04/27 00:09:30;;;;;;;15.90;9.13;;;6.10;99.90;;;;;;5024739;28;20185;-59
2022/04/27 00:12:00;;;;;;;13.90;9.53;;;6.10;99.90;;;;;;5027946;28;20504;-59
2022/04/27 00:14:27;;;;;;;13.10;9.10;;;6.10;99.90;;;;;;5029858;28;20434;-59
2022/04/27 00:16:53;;;;;;;13.13;7.57;;;6.10;99.90;;;;;;5029682;28;20426;-60
2022/04/27 00:19:18;;;;;;;13.17;9.13;;;6.10;99.90;;;;;;5024534;28;20431;-59
2022/04/27 00:21:44;;;;;;;15.47;9.17;;;6.10;99.90;;;;;;5011674;28;20226;-59
2022/04/27 00:24:10;;;;;;;17.83;9.67;;;6.10;99.90;;;;;;5029888;28;20648;-59
2022/04/27 00:26:36;;;;;;;14.90;9.27;;;6.10;99.90;;;;;;5011798;28;20187;-60
2022/04/27 00:29:01;;;;;;;17.33;10.40;;;6.10;99.90;;;;;;5024181;28;20188;-59
2022/04/27 00:31:28;;;;;;;17.20;9.73;;;6.10;99.90;;;;;;5028213;28;20509;-59
2022/04/27 00:33:54;;;;;;;13.87;8.80;;;6.10;99.90;;;;;;5026241;28;20609;-59
2022/04/27 00:36:19;;;;;;;14.73;9.17;;;6.20;99.90;;;;;;5036841;28;20414;-60
2022/04/27 00:38:45;;;;;;;16.30;9.47;;;6.20;99.90;;;;;;5025757;28;20699;-59
2022/04/27 00:41:11;;;;;;;15.40;9.50;;;6.20;99.90;;;;;;5027270;28;20250;-59
2022/04/27 00:43:39;;;;;;;14.60;9.43;;;6.20;99.90;;;;;;5012544;28;20214;-59
2022/04/27 00:46:04;;;;;;;15.90;10.23;;;6.20;99.90;;;;;;5024196;28;20184;-59
2022/04/27 00:48:30;;;;;;;16.97;9.77;;;6.20;99.90;;;;;;5021600;28;20432;-60
2022/04/27 00:50:59;;;;;;;15.40;10.40;;;6.20;99.90;;;;;;5028968;28;20923;-60
2022/04/27 00:53:25;;;;;;;15.60;9.80;;;6.20;99.90;;;;;;5038527;28;20188;-59
2022/04/27 00:55:50;;;;;;;13.87;9.37;;;6.20;99.90;;;;;;5028236;28;20430;-59
2022/04/27 00:58:18;;;;;;;18.30;9.13;;;6.20;99.90;;;;;;5023532;28;20199;-60
2022/04/27 01:00:44;;;;;;;16.63;8.90;;;6.20;99.90;;;;;;5014344;28;20732;-59
2022/04/27 01:03:09;;;;;;;15.37;9.23;;;6.20;99.90;;;;;;5010523;28;20489;-59
2022/04/27 01:05:35;;;;;;;15.50;9.80;;;6.20;99.90;;;;;;5024311;28;20256;-59
2022/04/27 01:08:01;;;;;;;16.10;9.20;;;6.10;99.90;;;;;;5008524;28;20203;-60
2022/04/27 01:10:27;;;;;;;16.30;9.27;;;6.20;99.90;;;;;;5029687;28;20524;-59
2022/04/27 01:12:54;;;;;;;15.40;9.60;;;6.20;99.90;;;;;;5029224;28;20254;-60
2022/04/27 01:15:34;;;;;;;16.10;9.50;;;6.10;99.90;;;;;;5024268;28;20516;-59
2022/04/27 01:18:00;;;;;;;16.97;10.00;;;6.10;99.90;;;;;;5018817;28;20463;-59
2022/04/27 01:20:31;;;;;;;14.30;8.97;;;6.10;99.90;;;;;;5029896;28;20513;-59
2022/04/27 01:22:56;;;;;;;18.17;10.07;;;6.10;99.90;;;;;;5001697;28;20461;-59
2022/04/27 01:25:22;;;;;;;18.20;10.80;;;6.10;99.90;;;;;;5024924;28;20454;-60
2022/04/27 01:27:48;;;;;;;14.63;9.53;;;6.10;99.90;;;;;;5026613;28;20176;-60
2022/04/27 01:30:13;;;;;;;16.40;9.77;;;6.10;99.90;;;;;;5029585;28;20187;-59
2022/04/27 01:32:39;;;;;;;18.33;9.77;;;6.20;99.90;;;;;;5025094;28;20238;-58
2022/04/27 01:35:05;;;;;;;17.40;10.97;;;6.20;99.90;;;;;;5017281;28;20187;-60
2022/04/27 01:40:15;;;;;;;15.30;9.23;;;6.20;99.90;;;;;;5024938;28;20441;-59
2022/04/27 01:42:40;;;;;;;18.30;9.40;;;6.20;99.90;;;;;;5028027;28;20478;-60
2022/04/27 01:45:06;;;;;;;16.90;9.37;;;6.20;99.90;;;;;;5033084;28;20179;-59
2022/04/27 01:47:32;;;;;;;15.33;9.07;;;6.20;99.90;;;;;;5019647;28;20265;-59
2022/04/27 01:49:58;;;;;;;14.40;9.57;;;6.20;99.90;;;;;;5022902;28;20899;-59
2022/04/27 01:55:07;;;;;;;15.33;9.40;;;6.20;99.90;;;;;;5028079;28;20234;-59
2022/04/27 01:57:33;;;;;;;15.40;9.57;;;6.30;99.90;;;;;;5026624;28;20851;-59
2022/04/27 01:59:59;;;;;;;14.57;8.60;;;6.20;99.90;;;;;;5030595;28;20190;-59
2022/04/27 02:02:24;;;;;;;13.70;9.10;;;6.30;99.90;;;;;;5027477;28;20713;-59
2022/04/27 02:04:50;;;;;;;18.07;10.17;;;6.20;99.90;;;;;;5023727;28;20181;-59
2022/04/27 02:07:16;;;;;;;16.83;10.00;;;6.20;99.90;;;;;;5028462;28;20184;-59
2022/04/27 02:09:42;;;;;;;19.20;9.60;;;6.30;99.90;;;;;;5007946;28;21105;-59
2022/04/27 02:12:08;;;;;;;18.33;10.40;;;6.30;99.90;;;;;;5029226;28;20211;-59
2022/04/27 02:14:35;;;;;;;16.10;9.53;;;6.30;99.90;;;;;;5029724;28;20175;-59
2022/04/27 02:17:01;;;;;;;16.47;9.70;;;6.30;99.90;;;;;;5022889;28;20509;-59
2022/04/27 02:19:26;;;;;;;16.60;9.57;;;6.40;99.90;;;;;;5019808;28;20635;-59
2022/04/27 02:21:53;;;;;;;17.50;10.70;;;6.40;99.90;;;;;;5012286;28;20184;-59
2022/04/27 02:24:18;;;;;;;21.00;9.63;;;6.40;99.90;;;;;;5031848;28;20592;-59
2022/04/27 02:26:44;;;;;;;20.33;11.80;;;6.40;99.90;;;;;;5028445;28;20485;-60
2022/04/27 02:29:10;;;;;;;18.23;10.90;;;6.30;99.90;;;;;;5026942;28;20543;-59
2022/04/27 02:31:36;;;;;;;16.20;10.50;;;6.40;99.90;;;;;;5025860;28;20548;-59
2022/04/27 02:34:01;;;;;;;17.13;10.90;;;6.40;99.90;;;;;;5023719;28;20230;-58
2022/04/27 02:36:27;;;;;;;21.90;11.40;;;6.40;99.90;;;;;;5028847;28;20179;-59
2022/04/27 02:38:52;;;;;;;16.70;11.30;;;6.40;99.90;;;;;;5022001;28;20184;-59
2022/04/27 02:41:18;;;;;;;17.53;9.93;;;6.30;99.90;;;;;;5023367;28;20179;-60
2022/04/27 02:43:44;;;;;;;19.33;10.27;;;6.40;99.90;;;;;;5027348;28;20953;-59
2022/04/27 02:46:10;;;;;;;16.33;10.00;;;6.30;99.90;;;;;;5027667;28;20271;-59
2022/04/27 02:48:35;;;;;;;15.43;9.70;;;6.30;99.90;;;;;;5020332;28;20529;-59
2022/04/27 02:53:53;;;;;;;16.50;10.20;;;6.30;99.90;;;;;;5008772;28;20208;-58
2022/04/27 02:56:18;;;;;;;15.47;10.23;;;6.30;99.90;;;;;;5021066;28;20441;-59
2022/04/27 02:58:44;;;;;;;15.97;9.70;;;6.30;99.90;;;;;;5010225;28;20568;-59
2022/04/27 03:01:10;;;;;;;17.07;10.73;;;6.20;99.90;;;;;;5011068;28;20187;-59
2022/04/27 03:03:35;;;;;;;20.17;10.77;;;6.20;99.90;;;;;;5021908;28;20732;-60
2022/04/27 03:06:01;;;;;;;25.20;10.90;;;6.10;99.90;;;;;;5021151;28;20271;-59
2022/04/27 03:08:26;;;;;;;17.17;11.23;;;6.10;99.90;;;;;;5024331;28;20194;-59
2022/04/27 03:10:52;;;;;;;16.30;9.90;;;6.10;99.90;;;;;;5027457;28;20667;-59
2022/04/27 03:13:18;;;;;;;14.50;9.37;;;6.10;99.90;;;;;;5021102;28;20192;-59
2022/04/27 03:15:43;;;;;;;12.37;8.17;;;6.00;99.90;;;;;;5023639;28;20176;-59
2022/04/27 03:18:19;;;;;;;16.97;10.97;;;6.00;99.90;;;;;;5005557;28;20198;-59
2022/04/27 03:20:46;;;;;;;14.37;8.90;;;6.00;99.90;;;;;;5024615;28;20543;-59
2022/04/27 03:23:11;;;;;;;13.53;8.77;;;6.00;99.90;;;;;;5027496;28;20450;-59
2022/04/27 03:25:37;;;;;;;14.80;8.83;;;5.90;99.90;;;;;;5034700;28;20463;-59
2022/04/27 03:28:03;;;;;;;15.90;8.57;;;5.90;99.90;;;;;;5021794;28;20599;-59
2022/04/27 03:30:29;;;;;;;14.13;9.13;;;5.90;99.90;;;;;;5022839;28;20180;-58
2022/04/27 03:32:54;;;;;;;19.07;10.53;;;5.80;99.90;;;;;;5024269;28;20466;-59
2022/04/27 03:35:20;;;;;;;17.13;10.80;;;5.80;99.90;;;;;;5024190;28;20211;-59
2022/04/27 03:37:46;;;;;;;15.40;10.23;;;5.80;99.90;;;;;;5027725;28;20621;-60
2022/04/27 03:40:12;;;;;;;20.13;11.10;;;5.70;99.90;;;;;;5025444;28;20426;-60
2022/04/27 03:42:37;;;;;;;16.70;9.93;;;5.70;99.90;;;;;;5031780;28;20206;-59
2022/04/27 03:45:03;;;;;;;16.40;9.50;;;5.70;99.90;;;;;;5011696;28;20172;-60
2022/04/27 03:47:29;;;;;;;12.30;7.63;;;5.70;99.90;;;;;;5007645;28;20172;-61
2022/04/27 03:49:59;;;;;;;12.07;7.60;;;5.70;99.90;;;;;;5026512;28;20942;-59
2022/04/27 03:52:25;;;;;;;8.77;6.00;;;5.60;99.90;;;;;;5019269;28;20207;-57
2022/04/27 03:54:51;;;;;;;10.20;6.50;;;5.60;99.90;;;;;;5019436;28;20496;-57
2022/04/27 03:57:16;;;;;;;11.70;7.43;;;5.70;99.90;;;;;;5007969;28;20449;-57
2022/04/27 03:59:42;;;;;;;9.40;6.57;;;5.70;99.90;;;;;;5017451;28;20273;-58
2022/04/27 04:02:08;;;;;;;11.17;7.23;;;5.70;99.90;;;;;;4997532;28;20203;-61
2022/04/27 04:04:34;;;;;;;10.50;6.43;;;5.70;99.90;;;;;;5012770;28;20179;-59
2022/04/27 04:06:59;;;;;;;11.40;7.30;;;5.70;99.90;;;;;;5020194;28;20210;-59
2022/04/27 04:09:25;;;;;;;10.87;6.97;;;5.70;99.90;;;;;;5015523;28;20185;-59
2022/04/27 04:11:50;;;;;;;11.03;6.57;;;5.70;99.90;;;;;;5015170;28;20323;-59
2022/04/27 04:14:16;;;;;;;13.03;8.50;;;5.80;99.90;;;;;;5006519;28;20176;-59
2022/04/27 04:16:42;;;;;;;15.20;9.10;;;5.80;99.90;;;;;;5022651;28;20226;-59
2022/04/27 04:19:07;;;;;;;13.87;9.30;;;5.80;99.90;;;;;;5020024;28;20338;-60
2022/04/27 04:21:33;;;;;;;19.23;10.40;;;5.80;99.90;;;;;;5020303;28;20183;-59
2022/04/27 04:23:59;;;;;;;16.40;9.77;;;5.90;99.90;;;;;;5016624;28;20203;-60
2022/04/27 04:29:08;;;;;;;14.80;9.20;;;5.90;99.90;;;;;;5015014;28;20190;-61
2022/04/27 04:31:34;;;;;;;15.03;9.07;;;5.90;99.90;;;;;;5020203;28;20455;-60
2022/04/27 04:33:59;;;;;;;15.40;9.00;;;5.80;99.90;;;;;;5020576;28;20196;-59
2022/04/27 04:36:25;;;;;;;17.37;9.73;;;5.80;99.90;;;;;;5014216;28;20215;-60
2022/04/27 04:38:51;;;;;;;18.40;10.30;;;5.80;99.90;;;;;;4994146;28;20172;-56
2022/04/27 04:41:16;;;;;;;14.90;9.13;;;5.80;99.90;;;;;;5003743;28;20315;-55
2022/04/27 04:43:42;;;;;;;17.97;10.37;;;5.80;99.90;;;;;;5020698;28;20247;-55
2022/04/27 04:46:09;;;;;;;17.30;10.40;;;5.80;99.90;;;;;;5005583;28;20180;-58
2022/04/27 04:48:34;;;;;;;17.73;10.07;;;5.80;99.90;;;;;;5020638;28;20259;-59
2022/04/27 04:51:00;;;;;;;19.00;11.13;;;5.80;99.90;;;;;;5016820;28;20542;-59
2022/04/27 04:53:25;;;;;;;15.57;9.70;;;5.80;99.90;;;;;;5007724;28;20222;-53
2022/04/27 04:55:51;;;;;;;16.40;9.17;;;5.80;99.90;;;;;;5029273;28;20191;-56
2022/04/27 04:58:17;;;;;;;15.83;8.97;;;5.80;99.90;;;;;;5013153;28;20176;-59
2022/04/27 05:00:43;;;;;;;17.53;9.40;;;5.90;99.90;;;;;;5019747;28;20673;-59
2022/04/27 05:03:08;;;;;;;14.10;9.00;;;5.90;99.90;;;;;;5028645;28;20290;-60
2022/04/27 05:05:37;;;;;;;15.30;9.80;;;5.90;99.90;;;;;;5026871;28;20538;-60
2022/04/27 05:08:05;;;;;;;17.20;11.10;;;6.00;99.90;;;;;;5024212;28;20176;-59
2022/04/27 05:10:31;;;;;;;19.33;9.33;;;6.00;99.90;;;;;;5020161;28;20422;-61
2022/04/27 05:12:56;;;;;;;15.53;8.93;;;6.10;99.90;;;;;;5023070;28;20473;-60
2022/04/27 05:15:22;;;;;;;15.50;10.30;;;6.20;99.90;;;;;;5026603;28;20172;-61
2022/04/27 05:17:48;;;;;;;15.57;9.67;;;6.40;99.90;;;;;;5030306;28;20200;-55
2022/04/27 05:20:13;;;;;;;15.77;9.17;;;6.50;99.90;;;;;;5029146;28;20179;-54
2022/04/27 05:22:39;;;;;;;16.80;8.23;;;6.60;99.90;;;;;;5032118;28;20200;-56
2022/04/27 05:25:06;;;;;;;14.20;8.77;;;6.70;99.90;;;;;;5036974;28;20184;-59
2022/04/27 05:27:32;;;;;;;13.67;8.63;;;6.80;99.90;;;;;;5025892;28;20557;-60
2022/04/27 05:32:43;;;;;;;14.43;8.53;;;6.90;99.90;;;;;;5024073;28;20545;-60
2022/04/27 05:35:09;;;;;;;14.37;8.13;;;7.00;99.90;;;;;;5019174;28;20435;-60
2022/04/27 05:37:36;;;;;;;18.17;10.60;;;7.10;99.90;;;;;;5025605;28;20430;-61
2022/04/27 05:40:01;;;;;;;17.90;9.60;;;7.10;99.90;;;;;;5025316;28;20554;-60
2022/04/27 05:42:27;;;;;;;17.10;10.27;;;7.20;99.90;;;;;;5026590;28;20541;-60
2022/04/27 05:44:53;;;;;;;21.77;11.77;;;7.30;99.90;;;;;;5024840;28;20195;-64
2022/04/27 05:47:18;;;;;;;19.67;10.07;;;7.40;99.90;;;;;;5028812;28;20217;-60
2022/04/27 05:49:44;;;;;;;17.10;8.77;;;7.50;99.90;;;;;;5008309;28;20184;-59
2022/04/27 05:52:10;;;;;;;15.87;8.70;;;7.60;99.90;;;;;;5028777;28;20226;-60
2022/04/27 05:54:35;;;;;;;14.40;8.57;;;7.60;99.90;;;;;;5025149;28;20586;-60
2022/04/27 05:57:01;;;;;;;17.47;8.87;;;7.70;99.90;;;;;;5021691;28;20199;-59
2022/04/27 05:59:26;;;;;;;13.27;8.30;;;7.80;99.90;;;;;;5020661;28;20549;-57
2022/04/27 06:01:52;;;;;;;17.23;8.80;;;7.80;99.90;;;;;;5028179;28;20656;-60
2022/04/27 06:04:18;;;;;;;12.03;8.00;;;7.80;99.90;;;;;;5022358;28;20564;-59
2022/04/27 06:06:43;;;;;;;12.60;8.47;;;7.80;99.90;;;;;;5007798;28;20191;-59
2022/04/27 06:09:09;;;;;;;14.20;8.40;;;7.80;99.90;;;;;;5023973;28;20176;-59
2022/04/27 06:11:34;;;;;;;12.53;8.70;;;7.90;99.90;;;;;;5021490;28;20813;-60
2022/04/27 06:14:00;;;;;;;13.97;8.97;;;7.90;99.90;;;;;;5026681;28;20207;-61
2022/04/27 06:16:27;;;;;;;16.00;9.93;;;7.90;99.90;;;;;;5020943;28;20168;-60
2022/04/27 06:18:52;;;;;;;16.47;9.63;;;7.90;99.90;;;;;;5019940;28;20174;-60
2022/04/27 06:21:18;;;;;;;17.30;10.70;;;7.90;99.90;;;;;;5027146;28;20426;-60
2022/04/27 06:23:43;;;;;;;15.47;9.40;;;7.90;99.90;;;;;;5021652;28;20196;-60
2022/04/27 06:26:09;;;;;;;17.93;8.80;;;7.90;99.90;;;;;;5023969;28;20236;-60
2022/04/27 06:28:35;;;;;;;15.67;9.37;;;7.90;99.90;;;;;;5025761;28;21805;-60
2022/04/27 06:31:01;;;;;;;14.10;9.57;;;8.00;99.90;;;;;;5027056;28;20172;-61
2022/04/27 06:33:27;;;;;;;15.07;9.90;;;8.00;99.90;;;;;;5024096;28;20447;-60
2022/04/27 06:35:53;;;;;;;13.57;8.83;;;8.00;99.90;;;;;;5028212;28;20438;-59
2022/04/27 06:38:19;;;;;;;13.10;8.40;;;8.00;99.90;;;;;;5028199;28;20468;-60
2022/04/27 06:40:45;;;;;;;16.30;8.67;;;8.10;99.90;;;;;;5007684;28;20529;-60
2022/04/27 06:43:11;;;;;;;13.93;8.63;;;8.10;99.90;;;;;;5020791;28;21000;-60
2022/04/27 06:45:36;;;;;;;13.27;8.27;;;8.10;99.90;;;;;;5011800;28;20673;-60
2022/04/27 06:48:03;;;;;;;13.17;8.90;;;8.20;99.90;;;;;;5011559;28;20438;-60
2022/04/27 06:50:29;;;;;;;25.53;8.60;;;8.20;99.90;;;;;;5034078;28;20265;-60
2022/04/27 06:52:58;;;;;;;8.27;6.43;;;8.30;99.90;;;;;;5025584;28;20572;-60
2022/04/27 06:55:25;;;;;;;27.07;11.37;;;8.30;99.90;;;;;;5026136;28;20482;-60
2022/04/27 06:57:51;;;;;;;9.47;5.27;;;8.40;99.90;;;;;;5023286;28;20446;-60
2022/04/27 07:00:16;;;;;;;7.70;5.10;;;8.60;99.90;;;;;;5004533;28;20418;-61
2022/04/27 07:02:42;;;;;;;5.90;4.80;;;8.60;99.90;;;;;;5023858;28;20291;-60
2022/04/27 07:05:12;;;;;;;5.73;4.20;;;8.70;99.90;;;;;;5023974;28;20179;-60
2022/04/27 07:07:38;;;;;;;6.57;4.67;;;8.80;99.90;;;;;;5022037;28;20167;-60
2022/04/27 07:10:04;;;;;;;5.80;4.53;;;8.90;99.90;;;;;;5027408;28;20430;-60
2022/04/27 07:12:29;;;;;;;9.27;4.40;;;9.00;99.90;;;;;;5026326;28;20466;-61
2022/04/27 07:14:56;;;;;;;6.23;3.67;;;9.10;99.90;;;;;;5024667;28;20436;-60
2022/04/27 07:17:22;;;;;;;6.33;4.80;;;9.20;99.90;;;;;;5025686;28;20183;-60
2022/04/27 07:19:47;;;;;;;4.57;4.10;;;9.20;99.90;;;;;;5026338;28;20426;-62
2022/04/27 07:22:13;;;;;;;5.10;4.23;;;9.30;99.90;;;;;;5019966;28;20212;-62
2022/04/27 07:24:39;;;;;;;5.57;4.40;;;9.30;99.40;;;;;;5021771;28;20195;-61
2022/04/27 07:27:05;;;;;;;5.80;4.17;;;9.40;98.80;;;;;;5024716;28;20418;-59
2022/04/27 07:29:32;;;;;;;10.20;4.90;;;9.50;97.70;;;;;;5021035;28;20350;-61
2022/04/27 07:32:01;;;;;;;4.60;3.83;;;9.50;97.00;;;;;;5018465;28;20462;-60
2022/04/27 07:34:27;;;;;;;5.27;3.63;;;9.50;96.30;;;;;;5020964;28;20438;-60
2022/04/27 07:36:52;;;;;;;7.13;4.03;;;9.50;95.90;;;;;;5027236;28;20787;-60
2022/04/27 07:39:18;;;;;;;5.60;4.40;;;9.50;96.20;;;;;;5023157;28;20445;-61
2022/04/27 07:41:47;;;;;;;6.67;4.60;;;9.60;97.00;;;;;;5025647;28;20180;-60
2022/04/27 07:44:12;;;;;;;6.60;4.53;;;9.60;97.10;;;;;;5019849;28;20637;-60
2022/04/27 07:46:38;;;;;;;4.43;3.90;;;9.60;96.90;;;;;;5025968;28;20448;-61
2022/04/27 07:49:04;;;;;;;5.83;4.47;;;9.70;93.50;;;;;;5026003;28;20176;-61
2022/04/27 07:51:30;;;;;;;6.60;4.60;;;9.70;94.00;;;;;;5017405;28;20196;-61
2022/04/27 07:53:55;;;;;;;5.27;3.80;;;9.70;94.20;;;;;;5026507;28;20204;-60
2022/04/27 07:56:21;;;;;;;5.17;3.97;;;9.80;95.30;;;;;;5022417;28;20211;-61
2022/04/27 07:58:46;;;;;;;5.03;4.40;;;9.90;95.50;;;;;;5022861;28;20174;-61
2022/04/27 08:01:12;;;;;;;5.77;3.90;;;9.90;94.70;;;;;;5025765;28;20207;-61
2022/04/27 08:03:38;;;;;;;11.90;3.93;;;10.00;93.30;;;;;;5022228;28;20681;-60
2022/04/27 08:06:04;;;;;;;8.53;4.10;;;10.00;93.10;;;;;;5028343;28;20180;-61
2022/04/27 08:08:31;;;;;;;4.53;3.97;;;10.00;93.30;;;;;;5028318;28;20655;-61
2022/04/27 08:10:57;;;;;;;11.33;5.07;;;10.00;91.40;;;;;;5029329;28;20456;-61
2022/04/27 08:13:22;;;;;;;6.70;4.10;;;10.00;90.70;;;;;;5024698;28;20497;-60
2022/04/27 08:15:49;;;;;;;5.33;3.70;;;10.00;89.60;;;;;;5024890;28;20172;-61
2022/04/27 08:18:14;;;;;;;5.40;3.10;;;10.10;88.70;;;;;;4996525;28;20521;-61
2022/04/27 08:23:29;;;;;;;3.07;2.70;;;10.10;83.90;;;;;;5025452;28;20695;-61
2022/04/27 08:25:57;;;;;;;3.67;3.20;;;10.20;83.10;;;;;;5029113;28;20442;-61
2022/04/27 08:28:22;;;;;;;6.03;3.70;;;10.20;81.70;;;;;;5022669;28;20508;-61
2022/04/27 08:30:49;;;;;;;3.70;3.40;;;10.40;81.70;;;;;;5029746;28;20430;-62
2022/04/27 08:33:16;;;;;;;4.37;3.17;;;10.50;80.80;;;;;;5027352;28;20199;-61
2022/04/27 08:35:42;;;;;;;8.13;3.27;;;10.60;76.80;;;;;;5028088;28;20454;-61
2022/04/27 08:38:12;;;;;;;7.10;4.13;;;10.60;75.80;;;;;;5024118;28;20814;-61
2022/04/27 08:40:40;;;;;;;3.80;3.40;;;10.60;75.80;;;;;;5025373;28;20708;-59
2022/04/27 08:43:06;;;;;;;5.73;3.77;;;10.70;73.90;;;;;;5025460;28;20465;-59
2022/04/27 08:45:33;;;;;;;5.80;4.17;;;10.70;74.50;;;;;;5022593;28;20454;-61
2022/04/27 08:47:59;;;;;;;4.77;3.57;;;10.70;74.80;;;;;;5026235;28;20450;-61
2022/04/27 08:50:26;;;;;;;7.13;3.13;;;10.70;74.20;;;;;;5021800;28;20794;-61
2022/04/27 08:52:53;;;;;;;5.63;3.90;;;10.70;72.10;;;;;;5006394;28;20994;-61
2022/04/27 08:55:20;;;;;;;5.60;3.43;;;10.70;71.10;;;;;;5027351;28;20431;-60
2022/04/27 08:57:48;;;;;;;4.20;2.90;;;10.70;72.40;;;;;;5032168;28;20411;-61
2022/04/27 09:00:16;;;;;;;3.80;3.33;;;10.80;73.30;;;;;;5030495;28;20983;-61
2022/04/27 09:02:42;;;;;;;3.53;3.23;;;10.80;71.80;;;;;;5011193;28;20593;-60
2022/04/27 09:05:18;;;;;;;5.57;3.27;;;10.80;71.00;;;;;;5030901;28;21038;-60
2022/04/27 09:07:52;;;;;;;4.20;3.43;;;10.70;69.30;;;;;;5024459;28;20441;-61
2022/04/27 09:10:23;;;;;;;3.27;2.87;;;10.70;69.20;;;;;;5019013;28;20442;-61
2022/04/27 09:12:49;;;;;;;3.97;3.13;;;10.60;70.00;;;;;;5031150;28;20892;-61
2022/04/27 09:15:18;;;;;;;3.57;2.90;;;10.60;69.60;;;;;;5023201;28;20432;-60
2022/04/27 09:23:23;;;;;;;3.53;2.70;;;10.80;67.30;;;;;;5025985;28;21588;-60
2022/04/27 09:25:55;;;;;;;4.73;3.60;;;10.90;67.20;;;;;;5029861;28;20414;-60
2022/04/27 09:28:29;;;;;;;4.23;3.43;;;11.10;66.10;;;;;;5025844;28;20447;-61
2022/04/27 09:30:55;;;;;;;2.83;2.63;;;11.20;64.80;;;;;;5026571;28;21093;-60
2022/04/27 09:33:32;;;;;;;3.37;2.70;;;11.30;63.60;;;;;;5027098;28;21137;-61
2022/04/27 09:35:58;;;;;;;3.50;3.20;;;11.30;62.50;;;;;;5024024;28;20441;-61
2022/04/27 09:38:24;;;;;;;4.33;3.10;;;11.40;62.70;;;;;;5006272;28;20414;-60
2022/04/27 09:40:56;;;;;;;3.50;3.10;;;11.50;62.20;;;;;;5025353;28;20565;-61
2022/04/27 09:43:51;;;;;;;3.43;3.13;;;11.50;63.00;;;;;;5031173;28;21057;-60
2022/04/27 09:46:24;;;;;;;5.03;3.00;;;11.50;62.50;;;;;;5024845;28;20453;-60
2022/04/27 09:49:02;;;;;;;4.60;3.10;;;11.50;62.10;;;;;;5027904;28;20962;-61
2022/04/27 09:51:28;;;;;;;2.97;2.67;;;11.60;61.80;;;;;;5024415;28;20501;-60
2022/04/27 09:53:57;;;;;;;3.37;3.07;;;11.60;61.10;;;;;;5023171;28;20499;-60
2022/04/27 09:56:28;;;;;;;5.30;3.83;;;11.70;61.20;;;;;;5019857;28;20434;-60
2022/04/27 09:58:57;;;;;;;4.27;3.20;;;11.80;60.50;;;;;;5024767;28;20442;-62
2022/04/27 10:01:24;;;;;;;3.57;3.07;;;11.90;59.50;;;;;;5027092;28;20433;-60
2022/04/27 10:03:50;;;;;;;3.97;3.00;;;12.00;60.10;;;;;;5023408;28;20838;-61
2022/04/27 10:06:16;;;;;;;4.43;3.27;;;12.20;60.90;;;;;;5020308;28;20430;-61
2022/04/27 10:08:42;;;;;;;4.97;3.40;;;12.30;59.40;;;;;;5011390;28;20430;-61
2022/04/27 10:11:11;;;;;;;5.77;3.60;;;12.20;57.90;;;;;;5027088;28;20169;-60
2022/04/27 10:13:38;;;;;;;5.83;3.43;;;12.10;57.00;;;;;;5024463;28;20454;-55
2022/04/27 10:16:04;;;;;;;6.60;4.20;;;12.10;57.30;;;;;;5026011;28;20938;-58
2022/04/27 10:18:31;;;;;;;4.00;3.47;;;12.20;59.90;;;;;;5010013;28;20427;-59
2022/04/27 10:20:56;;;;;;;3.17;2.73;;;12.50;56.90;;;;;;5027041;28;20431;-57
2022/04/27 10:23:27;;;;;;;7.53;3.30;;;12.60;55.10;;;;;;5023395;28;20457;-59
2022/04/27 10:26:27;;;;;;;4.77;3.57;;;12.60;56.40;;;;;;5026166;28;20661;-58
2022/04/27 10:29:00;;;;;;;4.90;2.93;;;12.60;57.90;;;;;;5023284;28;20951;-59
2022/04/27 10:31:40;;;;;;;2.70;2.50;;;12.70;58.00;;;;;;5028328;28;20468;-59
2022/04/27 10:34:20;;;;;;;3.00;2.63;;;12.80;57.50;;;;;;5002976;28;20546;-61
2022/04/27 10:36:50;;;;;;;3.77;2.60;;;12.90;56.60;;;;;;5028317;28;20927;-62
2022/04/27 10:39:17;;;;;;;3.50;3.20;;;12.90;56.70;;;;;;5028393;28;20452;-61
2022/04/27 10:42:04;;;;;;;4.07;2.87;;;12.90;56.40;;;;;;5023853;28;20462;-61
2022/04/27 10:44:48;;;;;;;2.57;2.37;;;12.90;55.50;;;;;;5030137;28;20489;-61
2022/04/27 10:47:20;;;;;;;3.40;3.00;;;12.80;54.40;;;;;;5117111;27;20360;-62
2022/04/27 10:50:06;;;;;;;4.50;2.90;;;12.70;54.50;;;;;;5082882;28;20420;-63
2022/04/27 10:52:52;;;;;;;3.80;2.77;;;12.60;56.00;;;;;;5071607;28;20500;-62
2022/04/27 10:55:40;;;;;;;3.87;2.97;;;12.60;57.50;;;;;;5073224;28;20463;-63
2022/04/27 10:58:18;;;;;;;3.47;3.17;;;12.60;57.80;;;;;;5079443;28;20947;-62
2022/04/27 11:00:58;;;;;;;2.67;2.47;;;12.60;57.80;;;;;;5077527;28;20426;-62
2022/04/27 11:03:25;;;;;;;2.97;2.73;;;12.60;57.80;;;;;;5076307;28;20448;-61
2022/04/27 11:05:52;;;;;;;4.40;2.90;;;12.60;58.60;;;;;;5074854;28;20835;-60
2022/04/27 11:08:45;;;;;;;6.67;3.37;;;12.60;58.70;;;;;;5070453;28;20614;-60
2022/04/27 11:11:10;;;;;;;5.13;3.30;;;12.70;58.90;;;;;;5074223;28;20808;-59
2022/04/27 11:13:37;;;;;;;13.73;3.43;;;12.70;58.60;;;;;;5078863;28;20439;-59
2022/04/27 11:16:11;;;;;;;5.07;3.80;;;12.70;58.20;;;;;;5070101;28;20339;-62
2022/04/27 11:18:51;;;;;;;5.50;3.80;;;12.80;57.10;;;;;;5073389;28;20420;-60
2022/04/27 11:21:20;;;;;;;3.97;3.30;;;12.90;57.10;;;;;;5067634;28;20420;-62
2022/04/27 11:23:47;;;;;;;6.17;4.20;;;13.10;57.00;;;;;;5065957;28;20443;-60
2022/04/27 11:26:16;;;;;;;4.43;4.03;;;13.20;56.50;;;;;;5073045;28;20428;-59
2022/04/27 11:28:43;;;;;;;4.10;3.70;;;13.10;56.00;;;;;;5074780;28;20499;-63
2022/04/27 11:31:09;;;;;;;4.27;3.83;;;13.00;55.70;;;;;;5066059;28;20496;-61
2022/04/27 11:33:40;;;;;;;7.40;3.83;;;12.90;55.90;;;;;;5069915;28;20487;-60
2022/04/27 11:36:26;;;;;;;4.60;3.70;;;12.80;55.80;;;;;;5065226;28;20961;-63
2022/04/27 11:38:52;;;;;;;5.23;3.90;;;12.80;56.00;;;;;;5070332;28;20548;-62
2022/04/27 11:41:20;;;;;;;6.40;3.77;;;12.70;56.40;;;;;;5070464;28;20507;-60
2022/04/27 11:43:47;;;;;;;5.50;4.33;;;12.70;56.70;;;;;;5062990;28;20459;-62
2022/04/27 11:46:13;;;;;;;5.10;4.10;;;12.80;56.80;;;;;;5063544;28;20455;-55
2022/04/27 11:48:39;;;;;;;6.70;4.50;;;12.80;57.00;;;;;;5073452;28;20439;-54
2022/04/27 11:51:06;;;;;;;5.50;4.20;;;12.90;56.80;;;;;;5065326;28;20663;-61
2022/04/27 11:53:43;;;;;;;6.47;4.50;;;13.10;56.90;;;;;;5077011;28;20435;-61
2022/04/27 11:56:09;;;;;;;13.33;5.03;;;13.20;56.50;;;;;;5090366;28;20470;-61
2022/04/27 11:58:35;;;;;;;9.63;3.60;;;13.50;56.30;;;;;;5065919;28;20433;-61
2022/04/27 12:01:01;;;;;;;4.73;3.70;;;14.00;56.70;;;;;;5051413;28;20183;-60
2022/04/27 12:03:29;;;;;;;3.97;3.60;;;14.20;55.40;;;;;;5049343;28;20210;-62
2022/04/27 12:05:55;;;;;;;7.30;3.97;;;14.40;54.10;;;;;;5057594;28;20463;-62
2022/04/27 12:08:23;;;;;;;4.17;3.77;;;14.30;52.90;;;;;;5056178;28;20432;-62
2022/04/27 12:10:49;;;;;;;4.50;4.07;;;14.20;52.30;;;;;;5062043;28;20432;-60
2022/04/27 12:13:18;;;;;;;4.17;3.77;;;14.10;52.90;;;;;;5063188;28;20947;-62
2022/04/27 12:15:51;;;;;;;4.83;4.10;;;13.90;53.30;;;;;;5060672;28;21174;-61
2022/04/27 12:18:22;;;;;;;5.27;3.70;;;14.00;52.80;;;;;;5067329;28;20404;-61
2022/04/27 12:20:48;;;;;;;4.80;4.30;;;14.10;52.60;;;;;;5064922;28;20921;-61
2022/04/27 12:23:23;;;;;;;4.30;3.83;;;14.20;53.00;;;;;;5062215;28;20931;-62
2022/04/27 12:25:59;;;;;;;9.10;4.70;;;14.20;53.00;;;;;;5066607;28;20430;-62
2022/04/27 12:28:29;;;;;;;3.80;3.40;;;14.20;52.60;;;;;;5068907;28;20916;-61
2022/04/27 12:31:05;;;;;;;5.67;4.57;;;14.20;52.50;;;;;;5070540;28;20486;-60
2022/04/27 12:33:42;;;;;;;5.70;3.90;;;14.20;52.60;;;;;;5058578;28;20601;-60
2022/04/27 12:38:56;;;;;;;6.23;4.33;;;14.20;52.10;;;;;;5066728;28;20987;-60
2022/04/27 12:41:41;;;;;;;5.33;3.97;;;14.20;51.30;;;;;;5070627;28;20428;-59
2022/04/27 12:44:09;;;;;;;6.57;5.20;;;14.20;51.20;;;;;;5067182;28;20449;-61
2022/04/27 12:46:35;;;;;;;5.60;4.03;;;14.70;52.10;;;;;;5064846;28;20444;-61
2022/04/27 12:49:03;;;;;;;4.83;3.87;;;15.20;52.80;;;;;;5066766;28;20424;-61
2022/04/27 12:51:29;;;;;;;4.63;4.03;;;15.80;51.80;;;;;;5064221;28;20437;-61
2022/04/27 12:53:57;;;;;;;4.33;3.90;;;16.20;49.40;;;;;;5063575;28;20448;-61
2022/04/27 12:56:34;;;;;;;7.03;4.17;;;16.50;48.30;;;;;;5067179;28;20693;-61
2022/04/27 12:59:05;;;;;;;4.33;3.90;;;16.90;48.30;;;;;;5062883;28;20497;-61
2022/04/27 13:01:31;;;;;;;5.20;4.10;;;17.20;46.80;;;;;;5062494;28;20445;-61
2022/04/27 13:03:56;;;;;;;6.07;4.30;;;17.60;46.50;;;;;;5063591;28;20437;-61
2022/04/27 13:06:22;;;;;;;6.30;3.80;;;17.90;47.90;;;;;;5062596;28;20872;-62
2022/04/27 13:08:49;;;;;;;5.27;3.67;;;17.90;47.10;;;;;;5060467;28;20198;-60
2022/04/27 13:13:59;;;;;;;7.00;4.67;;;16.90;46.80;;;;;;5065096;28;20502;-61
2022/04/27 13:16:25;;;;;;;5.97;4.07;;;16.40;46.90;;;;;;5065429;28;20460;-62